Time;durP1;ratioP1;P1;durP2;ratioP2;P2;SDS_P1;SDS_P2;PMS_P1;PMS_P2;Temp;Humidity;BMP_temperature;BMP_pressure;BME280_temperature;BME280_humidity;BME280_pressure;Samples;Min_cycle;Max_cycle;Signal;HPM_P1;HPM_P2
2024/02/11 00:00:43;;;;;;;13.90;5.00;;;;;;;;;;5032143;28;20354;-69
2024/02/11 00:03:08;;;;;;;13.82;5.13;;;;;;;;;;5031427;28;20014;-69
2024/02/11 00:05:33;;;;;;;13.57;5.83;;;;;;;;;;5029680;28;20018;-69
2024/02/11 00:07:59;;;;;;;12.75;5.38;;;;;;;;;;5030306;28;20306;-69
2024/02/11 00:10:24;;;;;;;8.47;4.67;;;;;;;;;;5034483;28;20032;-69
2024/02/11 00:12:49;;;;;;;7.83;4.63;;;;;;;;;;5027627;28;20766;-69
2024/02/11 00:15:14;;;;;;;13.63;5.10;;;;;;;;;;5035455;28;20255;-69
2024/02/11 00:17:39;;;;;;;11.95;5.20;;;;;;;;;;5032904;28;20762;-69
2024/02/11 00:20:07;;;;;;;8.10;5.28;;;;;;;;;;5031394;28;20460;-69
2024/02/11 00:22:33;;;;;;;9.65;4.78;;;;;;;;;;5038789;28;20024;-69
2024/02/11 00:24:58;;;;;;;12.63;5.05;;;;;;;;;;5028400;28;20074;-69
2024/02/11 00:27:23;;;;;;;15.40;5.20;;;;;;;;;;5045683;28;20026;-69
2024/02/11 00:29:52;;;;;;;12.03;5.17;;;;;;;;;;5023265;28;20021;-69
2024/02/11 00:32:17;;;;;;;10.10;4.95;;;;;;;;;;5030003;28;20256;-69
2024/02/11 00:34:42;;;;;;;8.75;4.90;;;;;;;;;;5028389;28;20071;-69
2024/02/11 00:37:10;;;;;;;10.37;5.57;;;;;;;;;;5028863;28;20017;-69
2024/02/11 00:39:36;;;;;;;11.40;5.07;;;;;;;;;;5028076;28;20272;-69
2024/02/11 00:42:01;;;;;;;11.32;5.60;;;;;;;;;;5029738;28;20532;-69
2024/02/11 00:44:26;;;;;;;10.00;5.13;;;;;;;;;;5029982;28;20543;-69
2024/02/11 00:46:51;;;;;;;17.33;6.07;;;;;;;;;;5029754;28;20260;-69
2024/02/11 00:49:18;;;;;;;11.47;5.37;;;;;;;;;;5031704;28;20653;-69
2024/02/11 00:51:43;;;;;;;15.88;5.57;;;;;;;;;;5030149;28;20251;-69
2024/02/11 00:54:09;;;;;;;9.25;5.40;;;;;;;;;;5038070;28;20036;-69
2024/02/11 00:56:34;;;;;;;7.78;5.30;;;;;;;;;;5029782;28;20028;-69
2024/02/11 00:58:59;;;;;;;9.13;5.05;;;;;;;;;;5028928;28;20025;-69
2024/02/11 01:01:24;;;;;;;10.65;5.15;;;;;;;;;;5029418;28;20491;-69
2024/02/11 01:03:56;;;;;;;8.23;5.15;;;;;;;;;;5029806;28;20021;-69
2024/02/11 01:06:22;;;;;;;11.95;5.07;;;;;;;;;;5030761;28;20093;-69
2024/02/11 01:08:49;;;;;;;10.07;5.10;;;;;;;;;;5029752;28;20108;-69
2024/02/11 01:11:16;;;;;;;9.15;5.07;;;;;;;;;;5029247;28;20033;-69
2024/02/11 01:13:41;;;;;;;16.70;5.15;;;;;;;;;;5029584;28;20068;-69
2024/02/11 01:16:06;;;;;;;8.83;4.63;;;;;;;;;;5029867;28;20395;-69
2024/02/11 01:18:31;;;;;;;11.35;4.00;;;;;;;;;;5029612;28;20268;-69
2024/02/11 01:20:57;;;;;;;8.13;4.47;;;;;;;;;;5029281;28;20064;-69
2024/02/11 01:23:22;;;;;;;6.00;3.47;;;;;;;;;;5029534;28;20288;-69
2024/02/11 01:25:47;;;;;;;11.80;4.97;;;;;;;;;;5027708;28;21327;-69
2024/02/11 01:28:13;;;;;;;5.07;2.90;;;;;;;;;;5028375;28;20294;-69
2024/02/11 01:30:38;;;;;;;6.32;3.55;;;;;;;;;;5027173;28;20275;-69
2024/02/11 01:33:04;;;;;;;7.47;3.63;;;;;;;;;;5028445;28;20025;-69
2024/02/11 01:35:29;;;;;;;7.13;3.45;;;;;;;;;;5028780;28;20028;-69
2024/02/11 01:37:55;;;;;;;7.85;3.10;;;;;;;;;;5027882;28;20131;-69
2024/02/11 01:40:21;;;;;;;8.20;3.85;;;;;;;;;;5028751;28;20029;-69
2024/02/11 01:42:47;;;;;;;7.40;2.88;;;;;;;;;;5027230;28;20486;-69
2024/02/11 01:45:13;;;;;;;9.93;4.15;;;;;;;;;;5028959;28;20029;-69
2024/02/11 01:47:38;;;;;;;10.05;3.70;;;;;;;;;;5029393;28;20041;-69
2024/02/11 01:50:15;;;;;;;8.50;3.72;;;;;;;;;;5033936;28;20045;-69
2024/02/11 01:52:40;;;;;;;5.03;2.97;;;;;;;;;;5029193;28;20185;-69
2024/02/11 01:55:06;;;;;;;5.32;3.17;;;;;;;;;;5028814;28;20029;-69
2024/02/11 01:57:32;;;;;;;7.80;3.53;;;;;;;;;;5029383;28;20108;-69
2024/02/11 01:59:58;;;;;;;8.00;3.70;;;;;;;;;;5028580;28;20025;-69
2024/02/11 02:02:27;;;;;;;9.57;3.95;;;;;;;;;;5029259;28;20109;-69
2024/02/11 02:04:52;;;;;;;8.40;3.67;;;;;;;;;;5029107;28;20017;-69
2024/02/11 02:07:18;;;;;;;7.18;3.75;;;;;;;;;;5028957;28;20072;-69
2024/02/11 02:09:43;;;;;;;9.80;4.10;;;;;;;;;;5028594;28;20028;-69
2024/02/11 02:12:08;;;;;;;6.75;3.45;;;;;;;;;;5028804;28;20028;-69
2024/02/11 02:14:34;;;;;;;7.72;4.95;;;;;;;;;;5033366;28;20391;-69
2024/02/11 02:16:59;;;;;;;8.50;3.08;;;;;;;;;;5027798;28;20024;-69
2024/02/11 02:19:25;;;;;;;10.33;3.83;;;;;;;;;;5030149;28;20024;-69
2024/02/11 02:21:51;;;;;;;10.95;3.78;;;;;;;;;;5028495;28;20335;-69
2024/02/11 02:24:16;;;;;;;6.95;3.70;;;;;;;;;;5027846;28;20017;-69
2024/02/11 02:26:42;;;;;;;10.90;4.68;;;;;;;;;;5027246;28;20032;-69
2024/02/11 02:29:07;;;;;;;6.40;3.90;;;;;;;;;;5027202;28;20026;-69
2024/02/11 02:31:34;;;;;;;7.47;4.13;;;;;;;;;;5028107;28;20021;-69
2024/02/11 02:33:59;;;;;;;5.95;3.20;;;;;;;;;;5026249;28;20754;-69
2024/02/11 02:36:26;;;;;;;6.70;3.80;;;;;;;;;;5027362;28;20063;-69
2024/02/11 02:38:51;;;;;;;11.07;4.20;;;;;;;;;;5028405;28;20351;-69
2024/02/11 02:41:17;;;;;;;10.23;4.00;;;;;;;;;;5028901;28;20343;-69
2024/02/11 02:43:42;;;;;;;7.87;3.87;;;;;;;;;;5028437;28;20038;-69
2024/02/11 02:46:09;;;;;;;9.90;3.43;;;;;;;;;;5027839;28;20280;-69
2024/02/11 02:48:34;;;;;;;11.15;3.47;;;;;;;;;;5026711;28;20343;-69
2024/02/11 02:51:00;;;;;;;9.27;3.90;;;;;;;;;;5027967;28;20488;-69
2024/02/11 02:53:26;;;;;;;10.02;3.67;;;;;;;;;;5029020;28;20347;-69
2024/02/11 02:55:52;;;;;;;9.50;3.38;;;;;;;;;;5026924;28;20071;-69
2024/02/11 02:58:17;;;;;;;7.13;3.50;;;;;;;;;;5031940;28;20033;-69
2024/02/11 03:00:42;;;;;;;7.63;3.70;;;;;;;;;;5030377;28;20091;-70
2024/02/11 03:03:07;;;;;;;6.75;3.60;;;;;;;;;;5030227;28;20307;-69
2024/02/11 03:05:37;;;;;;;7.63;3.80;;;;;;;;;;5030767;28;20032;-69
2024/02/11 03:08:03;;;;;;;9.67;3.43;;;;;;;;;;5030597;28;20014;-69
2024/02/11 03:10:28;;;;;;;9.88;3.20;;;;;;;;;;5030680;28;20075;-69
2024/02/11 03:12:53;;;;;;;7.35;3.40;;;;;;;;;;5030370;28;20496;-69
2024/02/11 03:15:18;;;;;;;8.93;2.80;;;;;;;;;;5030582;28;20060;-69
2024/02/11 03:17:44;;;;;;;9.75;3.70;;;;;;;;;;5030090;28;20354;-69
2024/02/11 03:20:11;;;;;;;9.20;3.33;;;;;;;;;;5024301;28;20116;-69
2024/02/11 03:22:36;;;;;;;9.88;4.03;;;;;;;;;;5029702;28;20032;-69
2024/02/11 03:25:01;;;;;;;5.70;3.40;;;;;;;;;;5030594;28;20029;-69
2024/02/11 03:27:27;;;;;;;7.93;3.70;;;;;;;;;;5029482;28;20782;-69
2024/02/11 03:29:53;;;;;;;9.50;3.75;;;;;;;;;;5031506;28;20272;-69
2024/02/11 03:32:18;;;;;;;9.37;3.40;;;;;;;;;;5033008;28;20021;-69
2024/02/11 03:34:43;;;;;;;6.90;4.00;;;;;;;;;;5030823;28;20345;-69
2024/02/11 03:37:08;;;;;;;6.28;3.15;;;;;;;;;;5030755;28;20273;-69
2024/02/11 03:39:36;;;;;;;8.40;2.57;;;;;;;;;;5029901;28;20022;-69
2024/02/11 03:42:02;;;;;;;7.15;3.55;;;;;;;;;;5029748;28;20303;-69
2024/02/11 03:44:27;;;;;;;8.23;3.72;;;;;;;;;;5031397;28;20049;-69
2024/02/11 03:46:52;;;;;;;7.40;3.20;;;;;;;;;;5031259;28;20021;-69
2024/02/11 03:49:18;;;;;;;19.33;4.25;;;;;;;;;;5031264;28;20264;-69
2024/02/11 03:51:43;;;;;;;8.87;3.80;;;;;;;;;;5031146;28;20013;-69
2024/02/11 03:54:08;;;;;;;2.35;1.45;;;;;;;;;;5030671;28;20391;-69
2024/02/11 03:56:34;;;;;;;8.85;4.00;;;;;;;;;;5030499;28;20108;-69
2024/02/11 03:58:59;;;;;;;8.60;3.13;;;;;;;;;;5031268;28;20156;-69
2024/02/11 04:01:25;;;;;;;12.73;3.95;;;;;;;;;;5032393;28;20021;-69
2024/02/11 04:03:50;;;;;;;6.65;4.15;;;;;;;;;;5033292;28;20112;-69
2024/02/11 04:06:20;;;;;;;7.43;3.10;;;;;;;;;;5030975;28;20104;-69
2024/02/11 04:08:45;;;;;;;3.72;2.55;;;;;;;;;;5029727;28;20260;-69
2024/02/11 04:11:11;;;;;;;7.40;3.63;;;;;;;;;;5028701;28;20025;-69
2024/02/11 04:13:36;;;;;;;10.05;3.83;;;;;;;;;;5033434;28;20026;-69
2024/02/11 04:16:11;;;;;;;7.88;4.05;;;;;;;;;;5029518;28;20030;-69
2024/02/11 04:18:36;;;;;;;11.10;4.68;;;;;;;;;;5029200;28;20032;-69
2024/02/11 04:21:04;;;;;;;11.98;4.00;;;;;;;;;;5029807;28;20396;-69
2024/02/11 04:23:30;;;;;;;12.57;4.35;;;;;;;;;;5029511;28;20094;-69
2024/02/11 04:25:56;;;;;;;7.93;4.20;;;;;;;;;;5029573;28;20334;-69
2024/02/11 04:28:21;;;;;;;10.55;4.30;;;;;;;;;;5028738;28;20140;-69
2024/02/11 04:30:46;;;;;;;8.20;3.67;;;;;;;;;;5030730;28;20014;-69
2024/02/11 04:33:15;;;;;;;14.57;4.53;;;;;;;;;;5026872;28;20113;-69
2024/02/11 04:35:40;;;;;;;11.73;3.97;;;;;;;;;;5029246;28;20804;-69
2024/02/11 04:38:12;;;;;;;11.35;4.20;;;;;;;;;;5028964;28;20033;-69
2024/02/11 04:40:37;;;;;;;12.43;4.78;;;;;;;;;;5029092;28;20037;-69
2024/02/11 04:43:02;;;;;;;3.60;1.95;;;;;;;;;;5029308;28;20014;-69
2024/02/11 04:45:28;;;;;;;13.50;3.88;;;;;;;;;;5030273;28;20026;-69
2024/02/11 04:47:53;;;;;;;4.07;2.25;;;;;;;;;;5029899;28;20021;-69
2024/02/11 04:50:21;;;;;;;9.80;4.75;;;;;;;;;;5028655;28;20259;-69
2024/02/11 04:52:53;;;;;;;9.20;4.25;;;;;;;;;;5028630;28;20032;-69
2024/02/11 04:55:19;;;;;;;5.78;2.13;;;;;;;;;;5027865;28;20021;-69
2024/02/11 04:57:44;;;;;;;9.40;3.25;;;;;;;;;;5028472;28;20510;-69
2024/02/11 05:00:10;;;;;;;5.53;3.00;;;;;;;;;;5029101;28;20025;-69
2024/02/11 05:02:37;;;;;;;6.85;2.55;;;;;;;;;;5028544;28;21064;-69
2024/02/11 05:05:04;;;;;;;8.85;3.00;;;;;;;;;;5028744;28;20112;-69
2024/02/11 05:07:32;;;;;;;4.80;3.00;;;;;;;;;;5026664;28;20498;-69
2024/02/11 05:09:57;;;;;;;8.80;4.38;;;;;;;;;;5028997;28;20411;-69
2024/02/11 05:12:22;;;;;;;8.85;2.95;;;;;;;;;;5028271;28;20025;-69
2024/02/11 05:14:49;;;;;;;5.50;3.03;;;;;;;;;;5029103;28;20086;-69
2024/02/11 05:17:15;;;;;;;5.95;2.88;;;;;;;;;;5029800;28;20627;-69
2024/02/11 05:19:41;;;;;;;8.38;4.78;;;;;;;;;;5026968;28;20056;-69
2024/02/11 05:22:08;;;;;;;5.30;3.45;;;;;;;;;;5027140;28;20018;-69
2024/02/11 05:24:35;;;;;;;10.93;4.35;;;;;;;;;;5026791;28;20064;-69
2024/02/11 05:27:03;;;;;;;7.10;3.88;;;;;;;;;;5026865;28;20021;-69
2024/02/11 05:29:29;;;;;;;6.93;2.83;;;;;;;;;;5026970;28;20390;-69
2024/02/11 05:31:54;;;;;;;8.00;3.20;;;;;;;;;;5028503;28;20041;-69
2024/02/11 05:34:19;;;;;;;4.97;2.27;;;;;;;;;;5028056;28;20271;-69
2024/02/11 05:36:45;;;;;;;9.05;3.38;;;;;;;;;;5026617;28;20279;-69
2024/02/11 05:39:10;;;;;;;5.10;3.25;;;;;;;;;;5027032;28;20025;-69
2024/02/11 05:41:36;;;;;;;14.03;3.40;;;;;;;;;;5028335;28;20033;-69
2024/02/11 05:44:01;;;;;;;11.60;4.23;;;;;;;;;;5029230;28;20278;-69
2024/02/11 05:46:26;;;;;;;5.25;3.28;;;;;;;;;;5029279;28;20271;-69
2024/02/11 05:48:51;;;;;;;2.97;1.67;;;;;;;;;;5029905;28;20396;-69
2024/02/11 05:51:17;;;;;;;1.10;0.70;;;;;;;;;;5028141;28;20040;-69
2024/02/11 05:53:42;;;;;;;1.55;0.85;;;;;;;;;;5029234;28;20260;-69
2024/02/11 05:56:07;;;;;;;0.90;0.60;;;;;;;;;;5032042;28;20025;-69
2024/02/11 05:58:32;;;;;;;1.27;0.75;;;;;;;;;;5030462;28;20031;-69
2024/02/11 06:00:58;;;;;;;4.20;1.05;;;;;;;;;;5028196;28;20021;-69
2024/02/11 06:03:23;;;;;;;6.33;1.03;;;;;;;;;;5029031;28;20060;-69
2024/02/11 06:05:49;;;;;;;6.63;1.55;;;;;;;;;;5028184;28;20260;-69
2024/02/11 06:08:15;;;;;;;5.70;1.67;;;;;;;;;;5029383;28;20025;-70
2024/02/11 06:10:40;;;;;;;5.53;1.75;;;;;;;;;;5028248;28;20108;-69
2024/02/11 06:13:08;;;;;;;12.10;3.57;;;;;;;;;;5028696;28;20502;-69
2024/02/11 06:15:37;;;;;;;7.90;1.48;;;;;;;;;;5028125;28;20268;-69
2024/02/11 06:18:02;;;;;;;11.68;3.10;;;;;;;;;;5024767;28;20029;-69
2024/02/11 06:20:29;;;;;;;14.82;6.18;;;;;;;;;;5025396;28;20075;-69
2024/02/11 06:22:54;;;;;;;24.40;7.82;;;;;;;;;;5028144;28;20021;-69
2024/02/11 06:25:20;;;;;;;12.73;4.15;;;;;;;;;;5028387;28;20017;-69
2024/02/11 06:27:48;;;;;;;10.38;1.52;;;;;;;;;;5028604;28;20026;-69
2024/02/11 06:30:13;;;;;;;11.52;1.48;;;;;;;;;;5026593;28;20032;-69
2024/02/11 06:32:49;;;;;;;4.05;1.60;;;;;;;;;;5029959;28;20025;-69
2024/02/11 06:35:15;;;;;;;6.43;1.35;;;;;;;;;;5031708;28;20527;-69
2024/02/11 06:37:41;;;;;;;9.77;1.67;;;;;;;;;;5030631;28;20196;-69
2024/02/11 06:40:10;;;;;;;6.93;1.88;;;;;;;;;;5031476;28;20399;-69
2024/02/11 06:42:36;;;;;;;8.75;1.92;;;;;;;;;;5029292;28;20025;-69
2024/02/11 06:45:02;;;;;;;7.35;1.77;;;;;;;;;;5031606;28;20024;-70
2024/02/11 06:47:28;;;;;;;15.95;2.50;;;;;;;;;;5031666;28;20021;-69
2024/02/11 06:49:53;;;;;;;12.25;2.45;;;;;;;;;;5030566;28;20010;-69
2024/02/11 06:52:18;;;;;;;12.90;2.70;;;;;;;;;;5031374;28;20087;-69
2024/02/11 06:54:43;;;;;;;13.07;0.93;;;;;;;;;;5030620;28;20013;-69
2024/02/11 06:57:11;;;;;;;10.07;1.83;;;;;;;;;;5031189;28;20366;-69
2024/02/11 06:59:38;;;;;;;12.18;2.60;;;;;;;;;;5029594;28;20290;-69
2024/02/11 07:02:04;;;;;;;14.77;1.75;;;;;;;;;;5030675;28;20480;-69
2024/02/11 07:04:32;;;;;;;10.07;1.30;;;;;;;;;;5031420;28;20018;-69
2024/02/11 07:06:59;;;;;;;9.25;1.83;;;;;;;;;;5032158;28;20029;-69
2024/02/11 07:09:24;;;;;;;10.05;1.98;;;;;;;;;;5029383;28;20013;-69
2024/02/11 07:11:49;;;;;;;10.23;2.17;;;;;;;;;;5030826;28;20092;-69
2024/02/11 07:14:15;;;;;;;10.20;2.67;;;;;;;;;;5030409;28;20029;-69
2024/02/11 07:16:40;;;;;;;9.30;2.42;;;;;;;;;;5029528;28;20268;-69
2024/02/11 07:19:08;;;;;;;8.40;2.47;;;;;;;;;;5031276;28;20075;-69
2024/02/11 07:21:34;;;;;;;13.27;3.20;;;;;;;;;;5031072;28;20100;-69
2024/02/11 07:24:00;;;;;;;11.80;2.85;;;;;;;;;;5030371;28;20576;-69
2024/02/11 07:26:25;;;;;;;8.88;2.55;;;;;;;;;;5031234;28;20096;-69
2024/02/11 07:28:51;;;;;;;8.18;2.53;;;;;;;;;;5029608;28;20017;-69
2024/02/11 07:31:16;;;;;;;13.23;3.42;;;;;;;;;;5029508;28;20284;-69
2024/02/11 07:33:41;;;;;;;23.77;3.33;;;;;;;;;;5029952;28;20140;-69
2024/02/11 07:36:07;;;;;;;9.65;2.58;;;;;;;;;;5030745;28;20654;-69
2024/02/11 07:38:33;;;;;;;11.35;2.88;;;;;;;;;;5030692;28;20048;-69
2024/02/11 07:40:58;;;;;;;10.70;3.30;;;;;;;;;;5027432;28;20032;-69
2024/02/11 07:43:25;;;;;;;16.47;2.93;;;;;;;;;;5026857;28;20040;-69
2024/02/11 07:45:50;;;;;;;11.43;3.03;;;;;;;;;;5036619;28;20258;-70
2024/02/11 07:48:15;;;;;;;12.80;2.70;;;;;;;;;;5031596;28;20022;-69
2024/02/11 07:50:40;;;;;;;10.03;2.83;;;;;;;;;;5031273;28;20252;-69
2024/02/11 07:53:05;;;;;;;17.37;2.80;;;;;;;;;;5031291;28;20310;-69
2024/02/11 07:55:31;;;;;;;11.80;2.50;;;;;;;;;;5028056;28;20737;-69
2024/02/11 07:57:59;;;;;;;7.82;2.97;;;;;;;;;;5029497;28;20256;-69
2024/02/11 08:00:24;;;;;;;13.13;3.20;;;;;;;;;;5031597;28;20057;-69
2024/02/11 08:02:50;;;;;;;9.10;1.93;;;;;;;;;;5031261;28;20060;-69
2024/02/11 08:05:15;;;;;;;14.70;3.83;;;;;;;;;;5030873;28;20288;-69
2024/02/11 08:07:40;;;;;;;15.87;3.20;;;;;;;;;;5033279;28;20021;-69
2024/02/11 08:10:07;;;;;;;15.33;3.73;;;;;;;;;;5030528;28;20643;-69
2024/02/11 08:12:33;;;;;;;12.95;3.42;;;;;;;;;;5031055;28;20727;-69
2024/02/11 08:14:58;;;;;;;15.63;3.42;;;;;;;;;;5029903;28;20029;-69
2024/02/11 08:17:23;;;;;;;10.97;3.00;;;;;;;;;;5029284;28;20476;-69
2024/02/11 08:19:48;;;;;;;18.17;3.77;;;;;;;;;;5030108;28;20288;-69
2024/02/11 08:22:13;;;;;;;14.93;3.05;;;;;;;;;;5029550;28;20351;-69
2024/02/11 08:24:39;;;;;;;15.67;3.23;;;;;;;;;;5028385;28;20472;-69
2024/02/11 08:27:04;;;;;;;12.37;2.93;;;;;;;;;;5026598;28;20284;-69
2024/02/11 08:29:29;;;;;;;19.30;4.47;;;;;;;;;;5029409;28;20266;-69
2024/02/11 08:31:54;;;;;;;17.83;4.00;;;;;;;;;;5028139;28;20026;-69
2024/02/11 08:34:20;;;;;;;24.55;4.65;;;;;;;;;;5030810;28;20431;-69
2024/02/11 08:36:45;;;;;;;12.80;3.60;;;;;;;;;;5029028;28;20025;-69
2024/02/11 08:39:10;;;;;;;15.10;3.90;;;;;;;;;;5029285;28;20021;-69
2024/02/11 08:41:36;;;;;;;15.05;4.38;;;;;;;;;;5025048;28;20044;-69
2024/02/11 08:44:02;;;;;;;12.88;4.15;;;;;;;;;;5025631;28;20051;-69
2024/02/11 08:46:27;;;;;;;9.30;3.05;;;;;;;;;;5029729;28;20049;-69
2024/02/11 08:48:52;;;;;;;10.80;3.65;;;;;;;;;;5030585;28;20021;-69
2024/02/11 08:51:20;;;;;;;20.33;3.17;;;;;;;;;;5029866;28;20079;-69
2024/02/11 08:53:46;;;;;;;17.95;3.72;;;;;;;;;;5029120;28;20272;-69
2024/02/11 08:56:11;;;;;;;25.95;4.25;;;;;;;;;;5030056;28;20102;-69
2024/02/11 08:58:37;;;;;;;12.90;3.83;;;;;;;;;;5028018;28;20391;-69
2024/02/11 09:01:02;;;;;;;14.55;3.33;;;;;;;;;;5028225;28;20275;-70
2024/02/11 09:03:28;;;;;;;17.63;3.85;;;;;;;;;;5029185;28;20025;-69
2024/02/11 09:05:53;;;;;;;18.00;7.18;;;;;;;;;;5028551;28;20025;-69
2024/02/11 09:08:20;;;;;;;14.73;3.85;;;;;;;;;;5030251;28;20020;-69
2024/02/11 09:10:45;;;;;;;12.40;3.55;;;;;;;;;;5028451;28;20013;-69
2024/02/11 09:13:11;;;;;;;21.60;4.78;;;;;;;;;;5028713;28;20518;-69
2024/02/11 09:15:36;;;;;;;9.05;3.47;;;;;;;;;;5026693;28;20021;-69
2024/02/11 09:18:01;;;;;;;11.43;3.55;;;;;;;;;;5027192;28;20033;-69
2024/02/11 09:20:26;;;;;;;13.63;3.67;;;;;;;;;;5028584;28;20041;-69
2024/02/11 09:22:52;;;;;;;13.33;3.77;;;;;;;;;;5028172;28;20056;-69
2024/02/11 09:25:17;;;;;;;7.95;2.92;;;;;;;;;;5028976;28;20743;-69
2024/02/11 09:27:43;;;;;;;6.90;2.58;;;;;;;;;;5026308;28;20476;-69
2024/02/11 09:30:11;;;;;;;12.57;3.25;;;;;;;;;;5025178;28;20537;-69
2024/02/11 09:32:36;;;;;;;7.20;2.25;;;;;;;;;;5025261;28;20336;-69
2024/02/11 09:35:02;;;;;;;19.52;3.45;;;;;;;;;;5028054;28;20025;-69
2024/02/11 09:37:27;;;;;;;11.20;3.47;;;;;;;;;;5027372;28;20017;-69
2024/02/11 09:39:52;;;;;;;7.57;3.42;;;;;;;;;;5027631;28;20038;-69
2024/02/11 09:42:19;;;;;;;8.73;3.53;;;;;;;;;;5026422;28;20029;-69
2024/02/11 09:44:46;;;;;;;9.23;4.35;;;;;;;;;;5026615;28;20567;-69
2024/02/11 09:47:13;;;;;;;14.10;3.30;;;;;;;;;;5020191;28;20064;-69
2024/02/11 09:49:39;;;;;;;13.48;3.47;;;;;;;;;;5021705;28;20064;-69
2024/02/11 09:52:05;;;;;;;11.77;3.05;;;;;;;;;;5025854;28;20336;-69
2024/02/11 09:54:31;;;;;;;16.90;4.18;;;;;;;;;;5028544;28;20109;-69
2024/02/11 09:56:56;;;;;;;11.43;3.78;;;;;;;;;;5026898;28;20053;-69
2024/02/11 09:59:26;;;;;;;14.50;3.50;;;;;;;;;;5035462;28;20033;-69
2024/02/11 10:01:51;;;;;;;9.57;3.65;;;;;;;;;;5024789;28;20264;-69
2024/02/11 10:04:17;;;;;;;11.93;3.88;;;;;;;;;;5028893;28;20033;-69
2024/02/11 10:06:42;;;;;;;23.42;6.43;;;;;;;;;;5026311;28;20052;-69
2024/02/11 10:09:12;;;;;;;13.07;4.47;;;;;;;;;;5025453;28;20022;-69
2024/02/11 10:11:37;;;;;;;9.90;3.78;;;;;;;;;;5025486;28;20766;-69
2024/02/11 10:14:08;;;;;;;11.05;4.60;;;;;;;;;;5026961;28;20064;-69
2024/02/11 10:16:33;;;;;;;;;;;;;;;;;;5018565;28;20021;-69
2024/02/11 10:18:58;;;;;;;8.32;3.13;;;;;;;;;;5027873;28;19909;-69
2024/02/11 10:21:24;;;;;;;6.38;2.83;;;;;;;;;;5028087;28;20018;-70
2024/02/11 10:23:50;;;;;;;10.63;4.35;;;;;;;;;;5027794;28;20478;-69
2024/02/11 10:26:15;;;;;;;9.07;2.90;;;;;;;;;;5029117;28;20089;-69
2024/02/11 10:28:40;;;;;;;4.38;1.83;;;;;;;;;;5026540;28;20010;-70
2024/02/11 10:31:06;;;;;;;3.67;2.08;;;;;;;;;;5028521;28;20084;-70
2024/02/11 10:33:31;;;;;;;5.53;2.53;;;;;;;;;;5029363;28;20488;-69
2024/02/11 10:35:58;;;;;;;7.88;2.75;;;;;;;;;;5028735;28;20402;-69
2024/02/11 10:38:24;;;;;;;12.75;4.47;;;;;;;;;;5028905;28;20030;-70
2024/02/11 10:40:49;;;;;;;8.98;3.22;;;;;;;;;;5028500;28;20116;-69
2024/02/11 10:43:16;;;;;;;7.53;3.42;;;;;;;;;;5027760;28;20108;-69
2024/02/11 10:45:41;;;;;;;12.73;3.78;;;;;;;;;;5028271;28;20025;-70
2024/02/11 10:48:06;;;;;;;7.80;2.90;;;;;;;;;;5026639;28;20076;-69
2024/02/11 10:50:34;;;;;;;6.32;2.80;;;;;;;;;;5028591;28;20079;-70
2024/02/11 10:53:01;;;;;;;7.18;2.78;;;;;;;;;;5027516;28;20029;-70
2024/02/11 10:55:29;;;;;;;10.07;3.25;;;;;;;;;;5027284;28;20032;-70
2024/02/11 10:57:55;;;;;;;9.85;4.15;;;;;;;;;;5024887;28;20400;-70
2024/02/11 11:00:21;;;;;;;6.35;2.33;;;;;;;;;;5028196;28;20046;-70
2024/02/11 11:02:48;;;;;;;10.35;3.78;;;;;;;;;;5027276;28;20036;-70
2024/02/11 11:05:17;;;;;;;11.52;3.85;;;;;;;;;;5023721;28;20026;-70
2024/02/11 11:07:45;;;;;;;11.98;3.88;;;;;;;;;;5024387;28;20054;-70
2024/02/11 11:10:10;;;;;;;4.07;2.20;;;;;;;;;;5029405;28;20027;-70
2024/02/11 11:12:39;;;;;;;8.00;3.55;;;;;;;;;;5028346;28;20034;-69
2024/02/11 11:15:11;;;;;;;9.52;3.70;;;;;;;;;;5024281;28;20093;-69
2024/02/11 11:17:36;;;;;;;17.00;4.40;;;;;;;;;;5020383;28;20292;-70
2024/02/11 11:20:10;;;;;;;10.73;3.63;;;;;;;;;;5027327;28;20048;-69
2024/02/11 11:22:36;;;;;;;9.57;4.40;;;;;;;;;;5041369;28;20021;-70
2024/02/11 11:25:02;;;;;;;9.35;2.78;;;;;;;;;;5038105;28;20021;-69
2024/02/11 11:27:27;;;;;;;6.50;2.55;;;;;;;;;;5038248;28;20365;-70
2024/02/11 11:29:52;;;;;;;7.72;3.92;;;;;;;;;;5031853;28;20550;-70
2024/02/11 11:32:24;;;;;;;6.68;3.80;;;;;;;;;;5032716;28;20438;-70
2024/02/11 11:34:53;;;;;;;10.68;2.70;;;;;;;;;;5030493;28;20175;-70
2024/02/11 11:37:18;;;;;;;9.68;4.70;;;;;;;;;;5030241;28;20053;-70
2024/02/11 11:39:43;;;;;;;9.18;4.25;;;;;;;;;;5030101;28;20496;-69
2024/02/11 11:42:09;;;;;;;14.98;4.03;;;;;;;;;;5028780;28;20441;-70
2024/02/11 11:44:34;;;;;;;10.38;5.28;;;;;;;;;;5028589;28;20029;-70
2024/02/11 11:47:00;;;;;;;8.63;4.45;;;;;;;;;;5030477;28;20017;-70
2024/02/11 11:49:25;;;;;;;10.27;4.82;;;;;;;;;;5030849;28;20029;-70
2024/02/11 11:51:59;;;;;;;7.38;3.78;;;;;;;;;;5031077;28;20115;-70
2024/02/11 11:54:28;;;;;;;11.07;4.88;;;;;;;;;;5028736;28;20031;-70
2024/02/11 11:56:59;;;;;;;14.95;4.82;;;;;;;;;;5037953;28;20025;-70
2024/02/11 11:59:25;;;;;;;9.43;4.72;;;;;;;;;;5031893;28;20516;-70
2024/02/11 12:01:51;;;;;;;11.02;4.60;;;;;;;;;;5031872;28;20040;-69
2024/02/11 12:04:17;;;;;;;10.60;4.32;;;;;;;;;;5027799;28;20338;-70
2024/02/11 12:06:43;;;;;;;9.20;4.22;;;;;;;;;;5029730;28;20022;-70
2024/02/11 12:09:09;;;;;;;15.70;5.43;;;;;;;;;;5030996;28;20025;-69
2024/02/11 12:11:34;;;;;;;13.80;4.13;;;;;;;;;;5030230;28;20018;-70
2024/02/11 12:14:00;;;;;;;8.48;2.80;;;;;;;;;;5030517;28;20033;-70
2024/02/11 12:16:26;;;;;;;15.68;4.75;;;;;;;;;;5030835;28;20041;-70
2024/02/11 12:18:51;;;;;;;11.27;3.85;;;;;;;;;;5028777;28;20025;-69
2024/02/11 12:21:18;;;;;;;7.55;3.53;;;;;;;;;;5030864;28;20446;-70
2024/02/11 12:23:43;;;;;;;10.95;3.92;;;;;;;;;;5030687;28;20033;-69
2024/02/11 12:26:09;;;;;;;6.05;3.40;;;;;;;;;;5031152;28;20028;-71
2024/02/11 12:28:35;;;;;;;7.80;3.15;;;;;;;;;;5029658;28;20108;-70
2024/02/11 12:31:10;;;;;;;8.55;4.45;;;;;;;;;;5029443;28;20674;-70
2024/02/11 12:33:37;;;;;;;5.35;2.65;;;;;;;;;;5030724;28;20029;-70
2024/02/11 12:36:05;;;;;;;11.82;3.95;;;;;;;;;;5026956;28;20045;-70
2024/02/11 12:38:31;;;;;;;9.07;3.83;;;;;;;;;;5030507;28;20036;-70
2024/02/11 12:40:56;;;;;;;8.23;3.28;;;;;;;;;;5029269;28;20052;-70
2024/02/11 12:43:22;;;;;;;7.85;4.35;;;;;;;;;;5024137;28;20029;-70
2024/02/11 12:45:47;;;;;;;6.43;3.50;;;;;;;;;;5031604;28;20026;-70
2024/02/11 12:48:12;;;;;;;7.77;3.70;;;;;;;;;;5034549;28;20033;-70
2024/02/11 12:50:38;;;;;;;8.65;4.13;;;;;;;;;;5028918;28;20769;-71
2024/02/11 12:53:04;;;;;;;11.37;4.10;;;;;;;;;;5028269;28;20029;-70
2024/02/11 12:55:29;;;;;;;9.52;4.10;;;;;;;;;;5028657;28;20294;-70
2024/02/11 12:57:55;;;;;;;9.27;4.37;;;;;;;;;;5026237;28;20022;-69
2024/02/11 13:00:21;;;;;;;10.35;5.00;;;;;;;;;;5025277;28;20321;-70
2024/02/11 13:02:46;;;;;;;6.22;3.17;;;;;;;;;;5033500;28;20037;-70
2024/02/11 13:05:12;;;;;;;6.60;3.35;;;;;;;;;;5029564;28;20022;-70
2024/02/11 13:07:37;;;;;;;5.82;2.97;;;;;;;;;;5029296;28;20518;-70
2024/02/11 13:10:03;;;;;;;6.45;3.33;;;;;;;;;;5029758;28;20035;-70
2024/02/11 13:12:28;;;;;;;10.57;2.85;;;;;;;;;;5029575;28;20017;-70
2024/02/11 13:14:54;;;;;;;6.82;2.47;;;;;;;;;;5029594;28;20025;-70
2024/02/11 13:17:19;;;;;;;4.17;2.10;;;;;;;;;;5040643;28;20097;-70
2024/02/11 13:19:44;;;;;;;7.78;1.98;;;;;;;;;;5043909;28;20283;-70
2024/02/11 13:22:12;;;;;;;8.47;2.07;;;;;;;;;;5032911;28;20071;-70
2024/02/11 13:24:37;;;;;;;5.68;1.30;;;;;;;;;;5027401;28;20820;-69
2024/02/11 13:27:03;;;;;;;1.75;1.17;;;;;;;;;;5029602;28;20025;-70
2024/02/11 13:29:28;;;;;;;1.42;1.25;;;;;;;;;;5028957;28;20017;-70
2024/02/11 13:31:53;;;;;;;4.03;1.07;;;;;;;;;;5028029;28;20025;-69
2024/02/11 13:34:19;;;;;;;4.90;2.07;;;;;;;;;;5029779;28;20267;-70
2024/02/11 13:36:44;;;;;;;11.02;1.80;;;;;;;;;;5029525;28;20813;-70
2024/02/11 13:39:09;;;;;;;7.63;2.33;;;;;;;;;;5027409;28;20025;-70
2024/02/11 13:41:35;;;;;;;3.58;1.67;;;;;;;;;;5043131;28;20310;-69
2024/02/11 13:44:00;;;;;;;3.05;1.20;;;;;;;;;;5027404;28;20060;-70
2024/02/11 13:46:26;;;;;;;3.87;1.23;;;;;;;;;;5029590;28;20096;-69
2024/02/11 13:48:51;;;;;;;2.05;1.27;;;;;;;;;;5029647;28;20252;-70
2024/02/11 13:51:16;;;;;;;7.20;1.50;;;;;;;;;;5029326;28;20033;-69
2024/02/11 13:53:42;;;;;;;3.47;1.30;;;;;;;;;;5028586;28;20359;-70
2024/02/11 13:56:09;;;;;;;6.22;1.75;;;;;;;;;;5024821;28;20029;-70
2024/02/11 13:58:40;;;;;;;3.70;1.52;;;;;;;;;;5028940;28;20029;-69
2024/02/11 14:01:06;;;;;;;3.03;0.65;;;;;;;;;;5028845;28;20021;-70
2024/02/11 14:03:32;;;;;;;4.72;1.20;;;;;;;;;;5029126;28;20044;-70
2024/02/11 14:05:57;;;;;;;3.78;1.38;;;;;;;;;;5028422;28;20022;-69
2024/02/11 14:08:22;;;;;;;6.70;1.23;;;;;;;;;;5029530;28;20022;-69
2024/02/11 14:10:47;;;;;;;3.63;1.30;;;;;;;;;;5043832;28;20116;-71
2024/02/11 14:13:13;;;;;;;7.10;1.00;;;;;;;;;;5029354;28;20260;-70
2024/02/11 14:15:40;;;;;;;5.13;1.83;;;;;;;;;;5028167;28;20021;-70
2024/02/11 14:18:08;;;;;;;5.28;1.38;;;;;;;;;;5029405;28;20420;-70
2024/02/11 14:20:34;;;;;;;6.53;1.30;;;;;;;;;;5028980;28;20535;-70
2024/02/11 14:22:59;;;;;;;5.97;1.55;;;;;;;;;;5028150;28;20133;-70
2024/02/11 14:25:26;;;;;;;3.72;0.95;;;;;;;;;;5029179;28;20480;-69
2024/02/11 14:27:51;;;;;;;3.10;1.42;;;;;;;;;;5028249;28;20021;-70
2024/02/11 14:30:17;;;;;;;5.17;1.13;;;;;;;;;;5028479;28;20025;-70